North Fort Myers, FL (33917)

10:07 AM EDT on August 21, 2017 (GMT -0400)
Slater Road | | Change Station

Elev 36 ft 26.73 °N, 81.85 °W | Updated 14 seconds ago

Partly Cloudy
Partly Cloudy
83.8 °F
Feels Like 88 °F
N
0.0
Wind Variable Wind from East
Gusts 0.0 mph

Today
High -- | Low -- °F
--% Chance of Precip.
Yesterday
High -- | Low -- °F
Precip. -- in
Pressure 30.11 in
Visibility 10.0 miles
Clouds Scattered Clouds 3000 ft
Heat Index 88 °F
Dew Point 69 °F
Humidity 62%
Rainfall 0.00 in
Snow Depth Not available.
7:02 AM 7:58 PM
Waning Crescent, 0% visible
METAR KFMY 211353Z 10009KT 10SM SCT030 29/26 A3010 RMK AO2 SLP194 T02940256
Pressure 30.11 in
Visibility 10.0 miles
Clouds Scattered Clouds 3000 ft
Heat Index 88 °F
Dew Point 69 °F
Humidity 62%
Rainfall 0.00 in
Snow Depth Not available.
7:02 AM 7:58 PM
Waning Crescent, 0% visible
METAR KFMY 211353Z 10009KT 10SM SCT030 29/26 A3010 RMK AO2 SLP194 T02940256

Get Severe Weather Alerts

Thanks for signing up!

Be on the lookout for a verification email in your inbox.

You'll start receiving the daily forecast at 6 AM.

×

10-Day Weather Forecast

Almanac

Astronomy

Aug. 21, 2017 Rise Set
Actual Time
Civil Twilight
Nautical Twilight
Astronomical Twilight
Moon
Length of Visible Light
Length of Day
Tomorrow will be .
, % of the Moon is Illuminated

Today's Extremes

State Highs State Lows

Community

WunderPhotos

Category 6

Welcome to Category 6. This is the collective home for Weather Underground's featured writeups by Dr. Jeff Masters (right), Bob Henson (left), Chris Burt, and other regular contributors.

Nearby

Air Quality

  Air Quality AQ Index Pollutant
Not available.

Snow Depth

Station Depth Elevation

Earthquake Activity

City Distance Mag. Time & Date
Minimum magnitude displayed is 2.5.

Coastal Water Temperatures

Place Temperature

Stations

Nearby Weather Stations

Station Location Temp. Windchill Dew Point Humidity Wind Precip. Elev Updated Type
                   

Watches & Warnings

There are currently no watches in effect.